createdAt,value
2023-10-06T00:01:34.682Z,7.15
2023-10-06T00:04:08.609Z,7.35
2023-10-06T00:06:38.953Z,7.03
2023-10-06T00:09:08.081Z,7.55
2023-10-06T00:11:35.599Z,6.90
2023-10-06T00:14:05.926Z,6.70
2023-10-06T00:16:40.585Z,7.60
2023-10-06T00:19:33.010Z,7.07
2023-10-06T00:22:09.516Z,6.55
2023-10-06T00:24:38.427Z,7.00
2023-10-06T00:27:11.898Z,7.03
2023-10-06T00:29:49.458Z,7.65
2023-10-06T00:32:22.921Z,7.38
2023-10-06T00:35:15.959Z,7.30
2023-10-06T00:37:43.654Z,6.22
2023-10-06T00:40:21.138Z,7.40
2023-10-06T00:42:58.418Z,7.63
2023-10-06T00:45:27.562Z,7.00
2023-10-06T00:47:55.259Z,7.70
2023-10-06T00:50:26.397Z,7.05
2023-10-06T00:52:57.102Z,7.20
2023-10-06T00:55:24.369Z,7.47
2023-10-06T00:57:54.281Z,7.97
2023-10-06T01:00:22.798Z,7.00
2023-10-06T01:02:50.440Z,7.50
2023-10-06T01:05:18.202Z,6.57
2023-10-06T01:07:48.429Z,6.80
2023-10-06T01:10:20.101Z,6.20
2023-10-06T01:12:52.886Z,7.30
2023-10-06T01:15:21.129Z,6.72
2023-10-06T01:17:48.954Z,7.72
2023-10-06T01:20:35.268Z,6.78
2023-10-06T01:23:03.000Z,6.40
2023-10-06T01:25:36.409Z,7.55
2023-10-06T01:28:04.892Z,6.72
2023-10-06T01:30:31.783Z,6.90
2023-10-06T01:32:59.876Z,6.97
2023-10-06T01:35:27.960Z,7.85
2023-10-06T01:38:00.568Z,6.88
2023-10-06T01:40:30.985Z,6.85
2023-10-06T01:42:58.486Z,6.78
2023-10-06T01:45:25.584Z,6.70
2023-10-06T01:48:22.468Z,8.07
2023-10-06T01:50:55.803Z,7.15
2023-10-06T01:53:23.227Z,6.65
2023-10-06T01:55:52.759Z,7.30
2023-10-06T01:58:20.480Z,6.93
2023-10-06T02:00:49.712Z,7.82
2023-10-06T02:03:23.163Z,7.53
2023-10-06T02:05:56.161Z,8.60
2023-10-06T02:08:24.721Z,8.55
2023-10-06T02:10:52.199Z,8.68
2023-10-06T02:13:23.171Z,8.93
2023-10-06T02:16:00.580Z,10.73
2023-10-06T02:18:37.878Z,10.00
2023-10-06T02:21:16.027Z,11.15
2023-10-06T02:23:43.456Z,10.68
2023-10-06T02:26:13.550Z,10.32
2023-10-06T02:28:45.109Z,10.63
2023-10-06T02:31:13.043Z,11.60
2023-10-06T02:33:47.209Z,9.88
2023-10-06T02:36:32.433Z,9.50
2023-10-06T02:39:06.740Z,10.23
2023-10-06T02:41:35.293Z,9.98
2023-10-06T02:44:23.870Z,9.80
2023-10-06T02:46:54.450Z,10.00
2023-10-06T02:49:36.607Z,9.48
2023-10-06T02:52:14.351Z,9.43
2023-10-06T02:55:01.219Z,10.07
2023-10-06T02:57:29.394Z,9.43
2023-10-06T03:00:04.703Z,9.80
2023-10-06T03:02:35.914Z,9.40
2023-10-06T03:05:13.748Z,8.95
2023-10-06T03:07:41.183Z,9.40
2023-10-06T03:10:10.060Z,9.18
2023-10-06T03:12:40.831Z,10.05
2023-10-06T03:15:28.255Z,9.18
2023-10-06T03:17:56.304Z,9.93
2023-10-06T03:20:48.768Z,9.98
2023-10-06T03:23:27.792Z,10.13
2023-10-06T03:25:55.873Z,10.13
2023-10-06T03:28:38.692Z,9.38
2023-10-06T03:31:22.897Z,10.23
2023-10-06T03:33:51.365Z,10.18
2023-10-06T03:36:27.560Z,10.10
2023-10-06T03:38:57.398Z,10.40
2023-10-06T03:41:32.641Z,10.95
2023-10-06T03:44:04.933Z,10.15
2023-10-06T03:46:39.528Z,10.90
2023-10-06T03:49:08.830Z,10.68
2023-10-06T03:51:39.380Z,10.55
2023-10-06T03:54:07.256Z,11.02
2023-10-06T03:56:34.508Z,9.93
2023-10-06T03:59:01.887Z,12.45
2023-10-06T04:01:33.059Z,10.57
2023-10-06T04:04:01.046Z,11.60
2023-10-06T04:06:28.502Z,9.85
2023-10-06T04:08:58.233Z,10.57
2023-10-06T04:11:31.251Z,10.95
2023-10-06T04:13:59.023Z,9.55
2023-10-06T04:16:26.824Z,9.80
2023-10-06T04:18:54.310Z,10.38
2023-10-06T04:21:21.763Z,9.98
2023-10-06T04:23:48.717Z,10.48
2023-10-06T04:26:17.055Z,11.35
2023-10-06T04:28:49.437Z,10.73
2023-10-06T04:31:17.290Z,12.43
2023-10-06T04:33:45.261Z,10.82
2023-10-06T04:36:14.220Z,12.38
2023-10-06T04:38:41.873Z,10.57
2023-10-06T04:41:10.654Z,10.30
2023-10-06T04:43:38.957Z,9.85
2023-10-06T04:46:06.780Z,10.48
2023-10-06T04:48:37.231Z,10.52
2023-10-06T04:51:05.498Z,9.90
2023-10-06T04:53:39.546Z,10.35
2023-10-06T04:56:08.258Z,10.98
2023-10-06T04:58:40.775Z,10.10
2023-10-06T05:01:09.477Z,10.70
2023-10-06T05:03:47.192Z,10.68
2023-10-06T05:06:17.982Z,11.00
2023-10-06T05:08:49.038Z,9.98
2023-10-06T05:11:18.721Z,9.63
2023-10-06T05:13:50.711Z,11.02
2023-10-06T05:16:20.287Z,10.05
2023-10-06T05:18:48.944Z,10.40
2023-10-06T05:21:16.770Z,9.65
2023-10-06T05:23:46.577Z,9.45
2023-10-06T05:26:16.251Z,8.35
2023-10-06T05:28:44.943Z,9.15
2023-10-06T05:31:13.218Z,8.70
2023-10-06T05:33:42.103Z,8.98
2023-10-06T05:36:16.620Z,7.47
2023-10-06T05:38:46.842Z,8.88
2023-10-06T05:41:14.405Z,8.10
2023-10-06T05:43:42.663Z,7.60
2023-10-06T05:46:10.891Z,7.88
2023-10-06T05:48:39.759Z,8.20
2023-10-06T05:51:10.825Z,8.13
2023-10-06T05:53:44.585Z,8.82
2023-10-06T05:58:39.806Z,8.15
2023-10-06T06:01:07.666Z,8.65
2023-10-06T06:03:34.947Z,8.25
2023-10-06T06:06:10.052Z,8.52
2023-10-06T06:08:39.321Z,8.18
2023-10-06T06:11:07.355Z,8.95
2023-10-06T06:13:37.506Z,7.88
2023-10-06T06:16:06.723Z,10.98
2023-10-06T06:18:35.193Z,10.13
2023-10-06T06:21:04.355Z,10.93
2023-10-06T06:23:34.925Z,11.23
2023-10-06T06:26:02.481Z,11.80
2023-10-06T06:28:29.711Z,12.38
2023-10-06T06:30:57.205Z,10.85
2023-10-06T06:33:24.566Z,13.63
2023-10-06T06:35:51.861Z,13.48
2023-10-06T06:38:20.180Z,12.57
2023-10-06T06:40:47.438Z,14.00
2023-10-06T06:43:14.843Z,15.15
2023-10-06T06:45:41.800Z,15.73
2023-10-06T06:48:14.261Z,15.23
2023-10-06T06:50:43.996Z,13.82
2023-10-06T06:53:11.932Z,15.32
2023-10-06T06:55:42.057Z,13.68
2023-10-06T06:58:12.759Z,13.30
2023-10-06T07:00:42.898Z,12.35
2023-10-06T07:03:12.552Z,9.73
2023-10-06T07:05:40.816Z,10.25
2023-10-06T07:08:08.559Z,10.10
2023-10-06T07:10:40.322Z,11.55
2023-10-06T07:13:08.040Z,13.13
2023-10-06T07:15:35.403Z,14.55
2023-10-06T07:18:02.592Z,14.88
2023-10-06T07:20:34.076Z,18.20
2023-10-06T07:23:05.124Z,18.85
2023-10-06T07:25:32.559Z,19.20
2023-10-06T07:28:00.426Z,14.55
2023-10-06T07:30:35.817Z,13.48
2023-10-06T07:33:09.802Z,15.90
2023-10-06T07:35:48.713Z,16.55
2023-10-06T07:38:15.897Z,15.80
2023-10-06T07:40:43.814Z,14.35
2023-10-06T07:43:11.918Z,13.93
2023-10-06T07:45:39.191Z,14.55
2023-10-06T07:48:10.483Z,13.90
2023-10-06T07:50:39.290Z,15.50
2023-10-06T07:53:07.789Z,15.25
2023-10-06T07:55:34.811Z,15.52
2023-10-06T07:58:03.576Z,16.20
2023-10-06T08:00:31.375Z,14.45
2023-10-06T08:03:00.843Z,14.38
2023-10-06T08:05:30.915Z,12.43
2023-10-06T08:08:01.728Z,12.02
2023-10-06T08:10:32.143Z,13.13
2023-10-06T08:13:02.740Z,11.30
2023-10-06T08:15:36.439Z,10.00
2023-10-06T08:18:04.049Z,11.20
2023-10-06T08:20:32.299Z,12.45
2023-10-06T08:22:59.849Z,13.18
2023-10-06T08:25:27.725Z,14.23
2023-10-06T08:27:54.840Z,15.25
2023-10-06T08:30:22.588Z,15.60
2023-10-06T08:32:53.627Z,13.93
2023-10-06T08:35:21.722Z,13.98
2023-10-06T08:37:51.181Z,13.77
2023-10-06T08:40:20.735Z,9.57
2023-10-06T08:42:49.107Z,10.43
2023-10-06T08:45:26.622Z,9.18
2023-10-06T08:48:02.599Z,8.63
2023-10-06T08:50:35.056Z,8.32
2023-10-06T08:53:06.091Z,4.68
2023-10-06T08:55:33.716Z,3.47
2023-10-06T08:58:04.081Z,3.30
2023-10-06T09:00:36.445Z,3.08
2023-10-06T09:03:11.085Z,3.70
2023-10-06T09:05:42.440Z,3.30
2023-10-06T09:08:11.144Z,3.75
2023-10-06T09:10:44.536Z,3.10
2023-10-06T09:13:13.989Z,2.28
2023-10-06T09:15:42.526Z,3.20
2023-10-06T09:18:25.774Z,3.08
2023-10-06T09:20:53.152Z,3.10
2023-10-06T09:23:38.199Z,4.30
2023-10-06T09:26:08.428Z,4.50
2023-10-06T09:28:48.198Z,3.10
2023-10-06T09:31:15.587Z,2.38
2023-10-06T09:33:45.843Z,2.75
2023-10-06T09:36:32.015Z,2.88
2023-10-06T09:39:15.644Z,3.55
2023-10-06T09:41:43.150Z,3.50
2023-10-06T09:44:13.479Z,2.88
2023-10-06T09:46:44.573Z,3.10
2023-10-06T09:49:17.523Z,2.90
2023-10-06T09:54:13.852Z,2.90
2023-10-06T09:56:43.797Z,1.83
2023-10-06T09:59:15.223Z,2.17
2023-10-06T10:01:47.728Z,1.52
2023-10-06T10:04:16.011Z,2.05
2023-10-06T10:06:47.226Z,1.85
2023-10-06T10:09:17.875Z,1.88
2023-10-06T10:12:02.682Z,3.28
2023-10-06T10:14:50.845Z,3.90
2023-10-06T10:17:19.838Z,2.67
2023-10-06T10:19:48.254Z,2.35
2023-10-06T10:22:17.555Z,2.90
2023-10-06T10:27:22.288Z,3.10
2023-10-06T10:29:50.754Z,3.40
2023-10-06T10:32:19.270Z,3.42
2023-10-06T10:35:14.395Z,2.70
2023-10-06T10:37:57.008Z,2.33
2023-10-06T10:40:30.153Z,3.10
2023-10-06T10:45:47.163Z,2.28
2023-10-06T10:48:15.855Z,2.50
2023-10-06T10:50:56.586Z,2.20
2023-10-06T10:53:23.986Z,3.25
2023-10-06T10:55:53.998Z,2.60
2023-10-06T10:58:43.055Z,2.28
2023-10-06T11:01:25.294Z,2.90
2023-10-06T11:04:14.178Z,2.37
2023-10-06T11:06:41.732Z,1.50
2023-10-06T11:09:44.733Z,1.98
2023-10-06T11:12:24.294Z,1.33
2023-10-06T11:15:03.684Z,1.95
2023-10-06T11:17:33.217Z,2.17
2023-10-06T11:20:24.180Z,2.28
2023-10-06T11:23:02.258Z,2.55
2023-10-06T11:25:33.831Z,2.60
2023-10-06T11:28:05.053Z,2.70
2023-10-06T11:30:34.491Z,2.42
2023-10-06T11:33:03.857Z,2.60
2023-10-06T11:35:35.252Z,2.90
2023-10-06T11:38:08.096Z,3.28
2023-10-06T11:40:39.093Z,2.55
2023-10-06T11:43:13.488Z,2.83
2023-10-06T11:45:44.438Z,2.47
2023-10-06T11:48:31.406Z,2.75
2023-10-06T11:51:09.509Z,2.85
2023-10-06T11:53:38.711Z,2.55
2023-10-06T11:56:11.550Z,2.00
2023-10-06T11:58:42.324Z,2.15
2023-10-06T12:01:33.913Z,2.58
2023-10-06T12:04:07.242Z,2.42
2023-10-06T12:06:44.422Z,2.22
2023-10-06T12:09:14.599Z,2.30
2023-10-06T12:11:42.323Z,2.20
2023-10-06T12:14:11.852Z,2.20
2023-10-06T12:16:39.224Z,2.03
2023-10-06T12:19:07.209Z,1.95
2023-10-06T12:21:34.670Z,1.70
2023-10-06T12:24:01.616Z,2.70
2023-10-06T12:26:30.075Z,2.15
2023-10-06T12:29:00.181Z,2.50
2023-10-06T12:31:28.116Z,2.47
2023-10-06T12:33:56.989Z,2.25
2023-10-06T12:36:27.077Z,2.25
2023-10-06T12:38:54.554Z,2.33
2023-10-06T12:41:21.601Z,2.35
2023-10-06T12:43:49.167Z,2.35
2023-10-06T12:46:17.227Z,2.15
2023-10-06T12:48:44.198Z,2.63
2023-10-06T12:51:14.452Z,2.67
2023-10-06T12:53:42.464Z,2.63
2023-10-06T12:56:10.941Z,3.63
2023-10-06T12:58:38.501Z,2.58
2023-10-06T13:01:09.945Z,2.15
2023-10-06T13:03:38.363Z,2.58
2023-10-06T13:06:06.314Z,2.63
2023-10-06T13:08:34.382Z,2.63
2023-10-06T13:11:05.633Z,2.90
2023-10-06T13:13:35.255Z,2.95
2023-10-06T13:16:02.872Z,3.13
2023-10-06T13:18:32.022Z,3.17
2023-10-06T13:20:59.563Z,10.88
2023-10-06T13:23:28.629Z,3.63
2023-10-06T13:25:59.624Z,3.10
2023-10-06T13:28:26.714Z,2.55
2023-10-06T13:30:55.319Z,2.88
2023-10-06T13:33:23.018Z,3.00
2023-10-06T13:35:50.455Z,3.05
2023-10-06T13:38:17.798Z,2.97
2023-10-06T13:40:47.915Z,2.97
2023-10-06T13:43:15.088Z,3.00
2023-10-06T13:45:50.169Z,2.90
2023-10-06T13:48:23.662Z,2.60
2023-10-06T13:50:53.783Z,3.08
2023-10-06T13:53:20.845Z,2.90
2023-10-06T13:55:48.321Z,3.10
2023-10-06T13:58:15.799Z,2.80
2023-10-06T14:00:43.628Z,3.80
2023-10-06T14:03:15.532Z,2.88
2023-10-06T14:05:44.767Z,3.28
2023-10-06T14:08:15.254Z,3.03
2023-10-06T14:10:44.117Z,3.05
2023-10-06T14:13:18.036Z,2.70
2023-10-06T14:15:46.795Z,3.10
2023-10-06T14:18:15.884Z,2.90
2023-10-06T14:20:46.617Z,3.42
2023-10-06T14:23:15.366Z,4.07
2023-10-06T14:25:44.061Z,3.58
2023-10-06T14:28:11.855Z,4.10
2023-10-06T14:30:43.692Z,4.10
2023-10-06T14:33:17.566Z,4.18
2023-10-06T14:35:59.506Z,4.10
2023-10-06T14:38:45.289Z,3.38
2023-10-06T14:41:35.184Z,4.45
2023-10-06T14:44:22.317Z,3.88
2023-10-06T14:46:51.940Z,4.10
2023-10-06T14:49:24.940Z,4.32
2023-10-06T14:51:55.108Z,4.63
2023-10-06T14:54:26.851Z,5.72
2023-10-06T14:56:55.923Z,4.20
2023-10-06T14:59:23.600Z,4.57
2023-10-06T15:01:52.911Z,4.28
2023-10-06T15:04:20.403Z,5.28
2023-10-06T15:06:47.774Z,5.18
2023-10-06T15:09:19.327Z,4.82
2023-10-06T15:11:51.852Z,5.00
2023-10-06T15:14:38.068Z,5.43
2023-10-06T15:17:06.182Z,5.10
2023-10-06T15:19:37.678Z,5.32
2023-10-06T15:22:09.745Z,5.10
2023-10-06T15:24:38.606Z,5.37
2023-10-06T15:27:08.162Z,5.68
2023-10-06T15:29:36.527Z,6.18
2023-10-06T15:32:06.638Z,6.10
2023-10-06T15:34:36.632Z,5.50
2023-10-06T15:37:05.894Z,6.03
2023-10-06T15:39:33.630Z,5.95
2023-10-06T15:42:00.909Z,6.20
2023-10-06T15:44:28.811Z,7.47
2023-10-06T15:46:58.111Z,8.18
2023-10-06T15:49:25.870Z,7.22
2023-10-06T15:51:53.776Z,7.75
2023-10-06T15:54:21.291Z,7.80
2023-10-06T15:56:49.116Z,7.45
2023-10-06T15:59:17.649Z,7.47
2023-10-06T16:01:46.485Z,7.97
2023-10-06T16:04:15.876Z,9.30
2023-10-06T16:06:47.073Z,8.75
2023-10-06T16:09:17.884Z,16.27
2023-10-06T16:11:45.909Z,9.65
2023-10-06T16:14:17.099Z,9.63
2023-10-06T16:16:45.203Z,10.00
2023-10-06T16:19:14.891Z,9.55
2023-10-06T16:21:45.314Z,9.02
2023-10-06T16:24:15.077Z,9.00
2023-10-06T16:26:43.830Z,8.95
2023-10-06T16:29:13.045Z,9.48
2023-10-06T16:31:41.431Z,8.95
2023-10-06T16:34:09.535Z,9.60
2023-10-06T16:36:38.549Z,9.50
2023-10-06T16:39:17.549Z,8.10
2023-10-06T16:41:46.054Z,8.65
2023-10-06T16:44:13.362Z,8.25
2023-10-06T16:46:40.838Z,8.15
2023-10-06T16:49:08.741Z,8.93
2023-10-06T16:51:36.118Z,8.90
2023-10-06T16:54:04.077Z,8.55
2023-10-06T16:56:31.459Z,9.00
2023-10-06T16:58:58.812Z,8.15
2023-10-06T17:01:26.147Z,7.85
2023-10-06T17:03:53.922Z,8.15
2023-10-06T17:06:21.336Z,8.15
2023-10-06T17:08:48.965Z,8.15
2023-10-06T17:11:17.872Z,8.90
2023-10-06T17:13:47.072Z,8.82
2023-10-06T17:16:15.403Z,8.90
2023-10-06T17:18:43.083Z,9.70
2023-10-06T17:21:17.063Z,9.30
2023-10-06T17:23:45.538Z,9.25
2023-10-06T17:26:16.186Z,10.60
2023-10-06T17:28:43.750Z,10.38
2023-10-06T17:31:16.926Z,13.80
2023-10-06T17:33:44.897Z,10.43
2023-10-06T17:36:12.314Z,12.60
2023-10-06T17:38:39.633Z,11.63
2023-10-06T17:41:12.410Z,10.95
2023-10-06T17:43:39.835Z,12.27
2023-10-06T17:46:07.347Z,12.98
2023-10-06T17:48:35.351Z,13.15
2023-10-06T17:51:02.805Z,12.32
2023-10-06T17:53:30.084Z,13.68
2023-10-06T17:56:01.821Z,12.82
2023-10-06T17:58:30.049Z,11.93
2023-10-06T18:00:57.457Z,11.80
2023-10-06T18:03:24.501Z,12.35
2023-10-06T18:05:54.228Z,12.95
2023-10-06T18:08:21.678Z,12.82
2023-10-06T18:10:49.235Z,12.80
2023-10-06T18:13:17.279Z,12.55
2023-10-06T18:15:47.861Z,11.70
2023-10-06T18:18:15.325Z,13.00
2023-10-06T18:20:44.358Z,13.63
2023-10-06T18:23:12.631Z,12.20
2023-10-06T18:25:40.411Z,12.23
2023-10-06T18:28:08.636Z,12.75
2023-10-06T18:30:36.310Z,13.48
2023-10-06T18:33:03.823Z,12.80
2023-10-06T18:35:31.313Z,13.32
2023-10-06T18:37:58.775Z,12.65
2023-10-06T18:40:26.217Z,12.63
2023-10-06T18:42:53.741Z,12.20
2023-10-06T18:45:21.040Z,12.60
2023-10-06T18:47:48.947Z,14.30
2023-10-06T18:50:19.175Z,12.65
2023-10-06T18:52:47.428Z,12.55
2023-10-06T18:55:15.136Z,12.77
2023-10-06T18:57:43.002Z,13.43
2023-10-06T19:00:10.791Z,12.93
2023-10-06T19:02:38.170Z,13.23
2023-10-06T19:05:07.515Z,13.38
2023-10-06T19:07:35.247Z,12.27
2023-10-06T19:10:10.561Z,12.68
2023-10-06T19:12:38.192Z,12.38
2023-10-06T19:15:09.531Z,11.48
2023-10-06T19:17:39.997Z,12.00
2023-10-06T19:20:08.991Z,12.35
2023-10-06T19:22:39.261Z,10.55
2023-10-06T19:25:10.770Z,11.82
2023-10-06T19:27:39.657Z,9.73
2023-10-06T19:30:10.966Z,9.27
2023-10-06T19:32:39.032Z,9.77
2023-10-06T19:35:09.370Z,8.68
2023-10-06T19:37:37.105Z,10.10
2023-10-06T19:40:07.590Z,9.65
2023-10-06T19:42:34.949Z,9.00
2023-10-06T19:45:02.340Z,8.93
2023-10-06T19:47:29.773Z,9.27
2023-10-06T19:49:57.233Z,8.90
2023-10-06T19:52:25.086Z,20.13
2023-10-06T19:54:52.577Z,9.45
2023-10-06T19:57:21.934Z,8.60
2023-10-06T19:59:51.076Z,8.20
2023-10-06T20:02:18.376Z,8.57
2023-10-06T20:04:46.614Z,9.20
2023-10-06T20:07:14.001Z,8.68
2023-10-06T20:09:41.420Z,8.80
2023-10-06T20:12:08.721Z,7.38
2023-10-06T20:14:37.243Z,8.27
2023-10-06T20:17:05.451Z,7.90
2023-10-06T20:19:34.922Z,8.43
2023-10-06T20:22:02.647Z,7.85
2023-10-06T20:24:30.509Z,8.32
2023-10-06T20:26:57.830Z,7.60
2023-10-06T20:29:25.636Z,8.63
2023-10-06T20:31:54.433Z,8.05
2023-10-06T20:34:21.912Z,8.38
2023-10-06T20:36:49.280Z,8.50
2023-10-06T20:39:18.268Z,8.77
2023-10-06T20:41:46.477Z,7.82
2023-10-06T20:44:14.183Z,9.43
2023-10-06T20:46:42.203Z,7.45
2023-10-06T20:49:09.784Z,7.45
2023-10-06T20:51:37.201Z,7.93
2023-10-06T20:54:04.814Z,7.95
2023-10-06T20:56:32.139Z,7.85
2023-10-06T20:58:59.607Z,7.90
2023-10-06T21:01:27.213Z,8.88
2023-10-06T21:03:54.946Z,8.23
2023-10-06T21:06:22.219Z,6.70
2023-10-06T21:08:49.541Z,8.35
2023-10-06T21:11:16.783Z,7.47
2023-10-06T21:13:44.220Z,8.25
2023-10-06T21:16:11.692Z,7.28
2023-10-06T21:18:39.044Z,7.22
2023-10-06T21:21:06.417Z,7.07
2023-10-06T21:23:34.019Z,7.65
2023-10-06T21:26:01.529Z,7.75
2023-10-06T21:28:28.907Z,7.75
2023-10-06T21:30:56.263Z,7.60
2023-10-06T21:33:23.538Z,5.65
2023-10-06T21:35:50.826Z,6.18
2023-10-06T21:38:18.176Z,6.90
2023-10-06T21:40:45.490Z,7.15
2023-10-06T21:43:12.807Z,6.28
2023-10-06T21:45:40.914Z,7.18
2023-10-06T21:48:08.822Z,6.72
2023-10-06T21:50:36.454Z,5.82
2023-10-06T21:53:04.447Z,6.32
2023-10-06T21:55:32.627Z,6.68
2023-10-06T21:57:59.999Z,6.97
2023-10-06T22:00:27.981Z,6.25
2023-10-06T22:02:55.883Z,6.30
2023-10-06T22:05:23.543Z,5.95
2023-10-06T22:07:51.430Z,5.57
2023-10-06T22:10:19.530Z,6.05
2023-10-06T22:12:49.344Z,6.10
2023-10-06T22:15:16.689Z,5.40
2023-10-06T22:17:44.046Z,5.20
2023-10-06T22:20:11.413Z,3.90
2023-10-06T22:22:38.760Z,6.15
2023-10-06T22:25:06.321Z,5.88
2023-10-06T22:27:34.192Z,5.45
2023-10-06T22:30:01.627Z,5.28
2023-10-06T22:32:29.406Z,6.32
2023-10-06T22:34:56.851Z,5.45
2023-10-06T22:37:27.041Z,6.22
2023-10-06T22:39:54.348Z,5.20
2023-10-06T22:42:22.578Z,5.47
2023-10-06T22:44:50.136Z,5.22
2023-10-06T22:47:17.466Z,5.53
2023-10-06T22:49:46.898Z,5.05
2023-10-06T22:52:17.119Z,5.72
2023-10-06T22:54:46.378Z,5.25
2023-10-06T22:57:13.851Z,5.20
2023-10-06T22:59:41.276Z,5.03
2023-10-06T23:02:10.903Z,4.53
2023-10-06T23:04:38.330Z,5.03
2023-10-06T23:07:06.157Z,4.72
2023-10-06T23:09:36.512Z,5.05
2023-10-06T23:12:05.889Z,4.85
2023-10-06T23:14:33.159Z,5.45
2023-10-06T23:17:02.244Z,4.43
2023-10-06T23:19:35.232Z,4.90
2023-10-06T23:24:49.137Z,4.75
2023-10-06T23:27:17.802Z,4.68
2023-10-06T23:29:45.708Z,5.15
2023-10-06T23:32:13.238Z,5.63
2023-10-06T23:34:43.355Z,5.63
2023-10-06T23:37:13.705Z,5.88
2023-10-06T23:39:41.586Z,5.55
2023-10-06T23:42:15.994Z,6.20
2023-10-06T23:44:43.675Z,6.00
2023-10-06T23:47:11.481Z,6.10
2023-10-06T23:49:43.682Z,6.43
2023-10-06T23:52:14.418Z,6.07
2023-10-06T23:54:42.382Z,6.75
2023-10-06T23:57:15.977Z,5.93
2023-10-06T23:59:45.132Z,6.60
